sensor_id;sensor_type;location;lat;lon;timestamp;temperature;humidity
20291;DHT22;10304;51.074;13.754;2023-06-04T00:02:17;14.50;1.00
20291;DHT22;10304;51.074;13.754;2023-06-04T00:04:44;14.40;1.00
20291;DHT22;10304;51.074;13.754;2023-06-04T00:07:12;14.40;1.00
20291;DHT22;10304;51.074;13.754;2023-06-04T00:09:39;14.30;1.00
20291;DHT22;10304;51.074;13.754;2023-06-04T00:12:06;14.30;1.00
20291;DHT22;10304;51.074;13.754;2023-06-04T00:14:33;14.20;1.00
20291;DHT22;10304;51.074;13.754;2023-06-04T00:16:59;14.10;1.00
20291;DHT22;10304;51.074;13.754;2023-06-04T00:19:26;14.00;1.00
20291;DHT22;10304;51.074;13.754;2023-06-04T00:21:53;14.00;1.00
20291;DHT22;10304;51.074;13.754;2023-06-04T00:24:20;13.90;1.00
20291;DHT22;10304;51.074;13.754;2023-06-04T00:26:46;13.80;1.00
20291;DHT22;10304;51.074;13.754;2023-06-04T00:29:13;13.70;1.00
20291;DHT22;10304;51.074;13.754;2023-06-04T00:31:40;13.70;1.00
20291;DHT22;10304;51.074;13.754;2023-06-04T00:34:07;13.70;1.00
20291;DHT22;10304;51.074;13.754;2023-06-04T00:36:33;13.70;1.00
20291;DHT22;10304;51.074;13.754;2023-06-04T00:39:00;13.60;1.00
20291;DHT22;10304;51.074;13.754;2023-06-04T00:41:27;13.50;1.00
20291;DHT22;10304;51.074;13.754;2023-06-04T00:43:54;13.40;1.00
20291;DHT22;10304;51.074;13.754;2023-06-04T00:46:25;13.40;1.00
20291;DHT22;10304;51.074;13.754;2023-06-04T00:48:54;13.30;1.00
20291;DHT22;10304;51.074;13.754;2023-06-04T00:51:22;13.30;1.00
20291;DHT22;10304;51.074;13.754;2023-06-04T00:53:49;13.30;1.00
20291;DHT22;10304;51.074;13.754;2023-06-04T00:56:16;13.20;1.00
20291;DHT22;10304;51.074;13.754;2023-06-04T00:58:44;13.20;1.00
20291;DHT22;10304;51.074;13.754;2023-06-04T01:01:17;13.20;1.00
20291;DHT22;10304;51.074;13.754;2023-06-04T01:03:47;13.10;1.00
20291;DHT22;10304;51.074;13.754;2023-06-04T01:06:39;13.10;1.00
20291;DHT22;10304;51.074;13.754;2023-06-04T01:09:10;13.10;1.00
20291;DHT22;10304;51.074;13.754;2023-06-04T01:11:38;13.00;1.00
20291;DHT22;10304;51.074;13.754;2023-06-04T01:14:07;13.00;1.00
20291;DHT22;10304;51.074;13.754;2023-06-04T01:16:49;12.90;1.00
20291;DHT22;10304;51.074;13.754;2023-06-04T01:22:03;12.80;1.00
20291;DHT22;10304;51.074;13.754;2023-06-04T01:24:34;12.70;1.00
20291;DHT22;10304;51.074;13.754;2023-06-04T01:27:04;12.70;1.00
20291;DHT22;10304;51.074;13.754;2023-06-04T01:29:31;12.60;1.00
20291;DHT22;10304;51.074;13.754;2023-06-04T01:31:59;12.60;1.00
20291;DHT22;10304;51.074;13.754;2023-06-04T01:34:26;12.60;1.00
20291;DHT22;10304;51.074;13.754;2023-06-04T01:36:52;12.60;1.00
20291;DHT22;10304;51.074;13.754;2023-06-04T01:39:19;12.50;1.00
20291;DHT22;10304;51.074;13.754;2023-06-04T01:41:46;12.40;1.00
20291;DHT22;10304;51.074;13.754;2023-06-04T01:44:13;12.40;1.00
20291;DHT22;10304;51.074;13.754;2023-06-04T01:46:39;12.40;1.00
20291;DHT22;10304;51.074;13.754;2023-06-04T01:49:06;12.40;1.00
20291;DHT22;10304;51.074;13.754;2023-06-04T01:51:33;12.30;1.00
20291;DHT22;10304;51.074;13.754;2023-06-04T01:54:00;12.30;1.00
20291;DHT22;10304;51.074;13.754;2023-06-04T01:56:26;12.20;1.00
20291;DHT22;10304;51.074;13.754;2023-06-04T01:58:54;12.20;1.00
20291;DHT22;10304;51.074;13.754;2023-06-04T02:01:21;12.20;1.00
20291;DHT22;10304;51.074;13.754;2023-06-04T02:03:48;12.10;1.00
20291;DHT22;10304;51.074;13.754;2023-06-04T02:06:15;12.10;1.00
20291;DHT22;10304;51.074;13.754;2023-06-04T02:08:42;12.10;1.00
20291;DHT22;10304;51.074;13.754;2023-06-04T02:11:09;12.10;1.00
20291;DHT22;10304;51.074;13.754;2023-06-04T02:13:35;12.10;1.00
20291;DHT22;10304;51.074;13.754;2023-06-04T02:16:03;12.00;1.00
20291;DHT22;10304;51.074;13.754;2023-06-04T02:18:30;12.00;1.00
20291;DHT22;10304;51.074;13.754;2023-06-04T02:20:57;11.90;1.00
20291;DHT22;10304;51.074;13.754;2023-06-04T02:23:24;11.90;1.00
20291;DHT22;10304;51.074;13.754;2023-06-04T02:25:51;11.90;1.00
20291;DHT22;10304;51.074;13.754;2023-06-04T02:28:17;11.90;1.00
20291;DHT22;10304;51.074;13.754;2023-06-04T02:30:45;11.80;1.00
20291;DHT22;10304;51.074;13.754;2023-06-04T02:33:13;11.80;1.00
20291;DHT22;10304;51.074;13.754;2023-06-04T02:35:40;11.70;1.00
20291;DHT22;10304;51.074;13.754;2023-06-04T02:38:07;11.70;1.00
20291;DHT22;10304;51.074;13.754;2023-06-04T02:40:34;11.60;1.00
20291;DHT22;10304;51.074;13.754;2023-06-04T02:43:01;11.60;1.00
20291;DHT22;10304;51.074;13.754;2023-06-04T02:45:27;11.50;1.00
20291;DHT22;10304;51.074;13.754;2023-06-04T02:47:55;11.50;1.00
20291;DHT22;10304;51.074;13.754;2023-06-04T02:50:22;11.50;1.00
20291;DHT22;10304;51.074;13.754;2023-06-04T02:52:49;11.50;1.00
20291;DHT22;10304;51.074;13.754;2023-06-04T02:55:16;11.40;1.00
20291;DHT22;10304;51.074;13.754;2023-06-04T02:57:43;11.40;1.00
20291;DHT22;10304;51.074;13.754;2023-06-04T03:00:12;11.30;1.00
20291;DHT22;10304;51.074;13.754;2023-06-04T03:02:45;11.30;1.00
20291;DHT22;10304;51.074;13.754;2023-06-04T03:05:14;11.30;1.00
20291;DHT22;10304;51.074;13.754;2023-06-04T03:07:42;11.30;1.00
20291;DHT22;10304;51.074;13.754;2023-06-04T03:10:11;11.20;1.00
20291;DHT22;10304;51.074;13.754;2023-06-04T03:12:39;11.20;1.00
20291;DHT22;10304;51.074;13.754;2023-06-04T03:15:06;11.20;1.00
20291;DHT22;10304;51.074;13.754;2023-06-04T03:17:33;11.20;1.00
20291;DHT22;10304;51.074;13.754;2023-06-04T03:20:00;11.20;1.00
20291;DHT22;10304;51.074;13.754;2023-06-04T03:22:27;11.20;1.00
20291;DHT22;10304;51.074;13.754;2023-06-04T03:24:54;11.20;1.00
20291;DHT22;10304;51.074;13.754;2023-06-04T03:27:21;11.20;1.00
20291;DHT22;10304;51.074;13.754;2023-06-04T03:29:48;11.20;1.00
20291;DHT22;10304;51.074;13.754;2023-06-04T03:32:15;11.20;1.00
20291;DHT22;10304;51.074;13.754;2023-06-04T03:34:43;11.20;1.00
20291;DHT22;10304;51.074;13.754;2023-06-04T03:37:10;11.20;1.00
20291;DHT22;10304;51.074;13.754;2023-06-04T03:39:37;11.10;1.00
20291;DHT22;10304;51.074;13.754;2023-06-04T03:42:04;11.10;1.00
20291;DHT22;10304;51.074;13.754;2023-06-04T03:44:31;11.00;1.00
20291;DHT22;10304;51.074;13.754;2023-06-04T03:46:58;11.00;1.00
20291;DHT22;10304;51.074;13.754;2023-06-04T03:49:25;10.90;1.00
20291;DHT22;10304;51.074;13.754;2023-06-04T03:51:52;11.00;1.00
20291;DHT22;10304;51.074;13.754;2023-06-04T03:54:18;11.00;1.00
20291;DHT22;10304;51.074;13.754;2023-06-04T03:56:45;11.00;1.00
20291;DHT22;10304;51.074;13.754;2023-06-04T03:59:12;11.10;1.00
20291;DHT22;10304;51.074;13.754;2023-06-04T04:01:39;11.10;1.00
20291;DHT22;10304;51.074;13.754;2023-06-04T04:04:06;11.10;1.00
20291;DHT22;10304;51.074;13.754;2023-06-04T04:06:33;11.10;1.00
20291;DHT22;10304;51.074;13.754;2023-06-04T04:09:00;11.20;1.00
20291;DHT22;10304;51.074;13.754;2023-06-04T04:11:27;11.20;1.00
20291;DHT22;10304;51.074;13.754;2023-06-04T04:13:53;11.20;1.00
20291;DHT22;10304;51.074;13.754;2023-06-04T04:16:20;11.20;1.00
20291;DHT22;10304;51.074;13.754;2023-06-04T04:18:47;11.30;1.00
20291;DHT22;10304;51.074;13.754;2023-06-04T04:21:14;11.40;1.00
20291;DHT22;10304;51.074;13.754;2023-06-04T04:23:41;11.40;1.00
20291;DHT22;10304;51.074;13.754;2023-06-04T04:26:08;11.50;1.00
20291;DHT22;10304;51.074;13.754;2023-06-04T04:28:36;11.50;1.00
20291;DHT22;10304;51.074;13.754;2023-06-04T04:31:03;11.60;1.00
20291;DHT22;10304;51.074;13.754;2023-06-04T04:33:30;11.60;1.00
20291;DHT22;10304;51.074;13.754;2023-06-04T04:35:59;11.60;1.00
20291;DHT22;10304;51.074;13.754;2023-06-04T04:38:26;11.60;1.00
20291;DHT22;10304;51.074;13.754;2023-06-04T04:40:55;11.70;1.00
20291;DHT22;10304;51.074;13.754;2023-06-04T04:43:34;11.70;1.00
20291;DHT22;10304;51.074;13.754;2023-06-04T04:46:01;11.80;1.00
20291;DHT22;10304;51.074;13.754;2023-06-04T04:48:28;11.80;1.00
20291;DHT22;10304;51.074;13.754;2023-06-04T04:50:57;11.90;1.00
20291;DHT22;10304;51.074;13.754;2023-06-04T04:53:24;12.00;1.00
20291;DHT22;10304;51.074;13.754;2023-06-04T04:55:50;12.00;1.00
20291;DHT22;10304;51.074;13.754;2023-06-04T04:58:17;12.10;1.00
20291;DHT22;10304;51.074;13.754;2023-06-04T05:00:44;12.20;1.00
20291;DHT22;10304;51.074;13.754;2023-06-04T05:03:12;12.20;1.00
20291;DHT22;10304;51.074;13.754;2023-06-04T05:05:39;12.20;1.00
20291;DHT22;10304;51.074;13.754;2023-06-04T05:08:06;12.30;1.00
20291;DHT22;10304;51.074;13.754;2023-06-04T05:10:33;12.30;1.00
20291;DHT22;10304;51.074;13.754;2023-06-04T05:13:02;12.40;1.00
20291;DHT22;10304;51.074;13.754;2023-06-04T05:15:31;12.40;1.00
20291;DHT22;10304;51.074;13.754;2023-06-04T05:17:58;12.50;1.00
20291;DHT22;10304;51.074;13.754;2023-06-04T05:20:28;12.50;1.00
20291;DHT22;10304;51.074;13.754;2023-06-04T05:22:56;12.60;1.00
20291;DHT22;10304;51.074;13.754;2023-06-04T05:25:23;12.60;1.00
20291;DHT22;10304;51.074;13.754;2023-06-04T05:27:49;12.70;1.00
20291;DHT22;10304;51.074;13.754;2023-06-04T05:30:17;12.70;1.00
20291;DHT22;10304;51.074;13.754;2023-06-04T05:32:44;12.90;1.00
20291;DHT22;10304;51.074;13.754;2023-06-04T05:35:11;12.90;1.00
20291;DHT22;10304;51.074;13.754;2023-06-04T05:37:38;12.90;1.00
20291;DHT22;10304;51.074;13.754;2023-06-04T05:40:08;13.10;1.00
20291;DHT22;10304;51.074;13.754;2023-06-04T05:42:35;13.10;1.00
20291;DHT22;10304;51.074;13.754;2023-06-04T05:45:03;13.10;1.00
20291;DHT22;10304;51.074;13.754;2023-06-04T05:47:30;13.20;1.00
20291;DHT22;10304;51.074;13.754;2023-06-04T05:49:58;13.30;1.00
20291;DHT22;10304;51.074;13.754;2023-06-04T05:52:24;13.40;1.00
20291;DHT22;10304;51.074;13.754;2023-06-04T05:54:51;13.50;1.00
20291;DHT22;10304;51.074;13.754;2023-06-04T05:57:19;13.60;1.00
20291;DHT22;10304;51.074;13.754;2023-06-04T05:59:46;13.70;1.00
20291;DHT22;10304;51.074;13.754;2023-06-04T06:02:13;13.70;1.00
20291;DHT22;10304;51.074;13.754;2023-06-04T06:04:40;13.80;1.00
20291;DHT22;10304;51.074;13.754;2023-06-04T06:07:07;13.90;1.00
20291;DHT22;10304;51.074;13.754;2023-06-04T06:09:34;14.00;1.00
20291;DHT22;10304;51.074;13.754;2023-06-04T06:12:02;14.10;1.00
20291;DHT22;10304;51.074;13.754;2023-06-04T06:14:29;14.20;1.00
20291;DHT22;10304;51.074;13.754;2023-06-04T06:16:56;14.20;1.00
20291;DHT22;10304;51.074;13.754;2023-06-04T06:19:23;14.30;1.00
20291;DHT22;10304;51.074;13.754;2023-06-04T06:21:50;14.40;1.00
20291;DHT22;10304;51.074;13.754;2023-06-04T06:24:17;14.50;1.00
20291;DHT22;10304;51.074;13.754;2023-06-04T06:26:44;14.60;1.00
20291;DHT22;10304;51.074;13.754;2023-06-04T06:29:10;14.70;1.00
20291;DHT22;10304;51.074;13.754;2023-06-04T06:31:37;14.90;1.00
20291;DHT22;10304;51.074;13.754;2023-06-04T06:34:04;15.00;1.00
20291;DHT22;10304;51.074;13.754;2023-06-04T06:36:31;15.10;1.00
20291;DHT22;10304;51.074;13.754;2023-06-04T06:38:59;15.20;1.00
20291;DHT22;10304;51.074;13.754;2023-06-04T06:41:26;15.30;1.00
20291;DHT22;10304;51.074;13.754;2023-06-04T06:43:53;15.40;1.00
20291;DHT22;10304;51.074;13.754;2023-06-04T06:46:20;15.50;1.00
20291;DHT22;10304;51.074;13.754;2023-06-04T06:48:48;15.70;1.00
20291;DHT22;10304;51.074;13.754;2023-06-04T06:51:15;15.80;1.00
20291;DHT22;10304;51.074;13.754;2023-06-04T06:53:42;15.90;1.00
20291;DHT22;10304;51.074;13.754;2023-06-04T06:56:09;16.00;1.00
20291;DHT22;10304;51.074;13.754;2023-06-04T06:58:36;16.20;1.00
20291;DHT22;10304;51.074;13.754;2023-06-04T07:01:03;16.30;1.00
20291;DHT22;10304;51.074;13.754;2023-06-04T07:03:30;16.50;1.00
20291;DHT22;10304;51.074;13.754;2023-06-04T07:05:58;16.50;1.00
20291;DHT22;10304;51.074;13.754;2023-06-04T07:08:25;16.60;1.00
20291;DHT22;10304;51.074;13.754;2023-06-04T07:10:52;16.70;1.00
20291;DHT22;10304;51.074;13.754;2023-06-04T07:13:19;16.90;1.00
20291;DHT22;10304;51.074;13.754;2023-06-04T07:15:46;17.00;1.00
20291;DHT22;10304;51.074;13.754;2023-06-04T07:18:13;17.20;1.00
20291;DHT22;10304;51.074;13.754;2023-06-04T07:20:40;17.30;1.00
20291;DHT22;10304;51.074;13.754;2023-06-04T07:23:07;17.40;1.00
20291;DHT22;10304;51.074;13.754;2023-06-04T07:25:34;17.50;1.00
20291;DHT22;10304;51.074;13.754;2023-06-04T07:28:01;17.60;1.00
20291;DHT22;10304;51.074;13.754;2023-06-04T07:30:31;17.70;1.00
20291;DHT22;10304;51.074;13.754;2023-06-04T07:33:00;17.90;1.00
20291;DHT22;10304;51.074;13.754;2023-06-04T07:35:27;18.00;1.00
20291;DHT22;10304;51.074;13.754;2023-06-04T07:37:54;18.20;1.00
20291;DHT22;10304;51.074;13.754;2023-06-04T07:40:21;18.30;1.00
20291;DHT22;10304;51.074;13.754;2023-06-04T07:42:48;18.50;1.00
20291;DHT22;10304;51.074;13.754;2023-06-04T07:45:15;18.60;1.00
20291;DHT22;10304;51.074;13.754;2023-06-04T07:47:43;18.70;1.00
20291;DHT22;10304;51.074;13.754;2023-06-04T07:50:10;18.80;1.00
20291;DHT22;10304;51.074;13.754;2023-06-04T07:52:37;18.90;1.00
20291;DHT22;10304;51.074;13.754;2023-06-04T07:55:04;19.00;1.00
20291;DHT22;10304;51.074;13.754;2023-06-04T07:57:31;19.10;1.00
20291;DHT22;10304;51.074;13.754;2023-06-04T07:59:58;19.20;1.00
20291;DHT22;10304;51.074;13.754;2023-06-04T08:02:26;19.40;1.00
20291;DHT22;10304;51.074;13.754;2023-06-04T08:04:53;19.50;1.00
20291;DHT22;10304;51.074;13.754;2023-06-04T08:07:19;19.60;1.00
20291;DHT22;10304;51.074;13.754;2023-06-04T08:09:46;19.70;1.00
20291;DHT22;10304;51.074;13.754;2023-06-04T08:12:13;19.80;1.00
20291;DHT22;10304;51.074;13.754;2023-06-04T08:14:42;19.90;1.00
20291;DHT22;10304;51.074;13.754;2023-06-04T08:17:09;20.00;1.00
20291;DHT22;10304;51.074;13.754;2023-06-04T08:19:36;20.10;1.00
20291;DHT22;10304;51.074;13.754;2023-06-04T08:22:04;20.20;1.00
20291;DHT22;10304;51.074;13.754;2023-06-04T08:24:30;20.30;1.00
20291;DHT22;10304;51.074;13.754;2023-06-04T08:26:57;20.40;1.00
20291;DHT22;10304;51.074;13.754;2023-06-04T08:29:24;20.50;1.00
20291;DHT22;10304;51.074;13.754;2023-06-04T08:31:51;20.60;1.00
20291;DHT22;10304;51.074;13.754;2023-06-04T08:34:18;20.70;1.00
20291;DHT22;10304;51.074;13.754;2023-06-04T08:36:45;20.90;1.00
20291;DHT22;10304;51.074;13.754;2023-06-04T08:39:13;21.00;1.00
20291;DHT22;10304;51.074;13.754;2023-06-04T08:41:45;21.10;1.00
20291;DHT22;10304;51.074;13.754;2023-06-04T08:44:13;21.20;1.00
20291;DHT22;10304;51.074;13.754;2023-06-04T08:46:40;21.40;1.00
20291;DHT22;10304;51.074;13.754;2023-06-04T08:49:08;21.60;1.00
20291;DHT22;10304;51.074;13.754;2023-06-04T08:51:36;21.70;1.00
20291;DHT22;10304;51.074;13.754;2023-06-04T08:54:08;21.90;1.00
20291;DHT22;10304;51.074;13.754;2023-06-04T08:56:35;22.00;1.00
20291;DHT22;10304;51.074;13.754;2023-06-04T08:59:05;22.20;1.00
20291;DHT22;10304;51.074;13.754;2023-06-04T09:01:35;22.30;1.00
20291;DHT22;10304;51.074;13.754;2023-06-04T09:04:05;22.50;1.00
20291;DHT22;10304;51.074;13.754;2023-06-04T09:06:36;22.70;1.00
20291;DHT22;10304;51.074;13.754;2023-06-04T09:09:05;22.90;1.00
20291;DHT22;10304;51.074;13.754;2023-06-04T09:11:41;23.00;1.00
20291;DHT22;10304;51.074;13.754;2023-06-04T09:14:11;23.20;1.00
20291;DHT22;10304;51.074;13.754;2023-06-04T09:16:49;23.40;1.00
20291;DHT22;10304;51.074;13.754;2023-06-04T09:19:17;23.50;1.00
20291;DHT22;10304;51.074;13.754;2023-06-04T09:21:55;23.70;1.00
20291;DHT22;10304;51.074;13.754;2023-06-04T09:24:38;23.90;1.00
20291;DHT22;10304;51.074;13.754;2023-06-04T09:27:11;24.00;1.00
20291;DHT22;10304;51.074;13.754;2023-06-04T09:29:39;24.20;1.00
20291;DHT22;10304;51.074;13.754;2023-06-04T09:32:06;24.30;1.00
20291;DHT22;10304;51.074;13.754;2023-06-04T09:34:34;24.40;1.00
20291;DHT22;10304;51.074;13.754;2023-06-04T09:37:01;24.50;1.00
20291;DHT22;10304;51.074;13.754;2023-06-04T09:39:29;24.70;1.00
20291;DHT22;10304;51.074;13.754;2023-06-04T09:42:02;24.90;1.00
20291;DHT22;10304;51.074;13.754;2023-06-04T09:44:30;25.10;1.00
20291;DHT22;10304;51.074;13.754;2023-06-04T09:46:57;25.30;1.00
20291;DHT22;10304;51.074;13.754;2023-06-04T09:49:25;25.40;1.00
20291;DHT22;10304;51.074;13.754;2023-06-04T09:51:52;25.60;1.00
20291;DHT22;10304;51.074;13.754;2023-06-04T09:54:19;25.80;1.00
20291;DHT22;10304;51.074;13.754;2023-06-04T09:56:46;26.00;1.00
20291;DHT22;10304;51.074;13.754;2023-06-04T09:59:13;26.20;1.00
20291;DHT22;10304;51.074;13.754;2023-06-04T10:01:40;26.40;1.00
20291;DHT22;10304;51.074;13.754;2023-06-04T10:04:13;26.50;1.00
20291;DHT22;10304;51.074;13.754;2023-06-04T10:06:41;26.70;1.00
20291;DHT22;10304;51.074;13.754;2023-06-04T10:09:09;26.80;1.00
20291;DHT22;10304;51.074;13.754;2023-06-04T10:11:40;26.90;1.00
20291;DHT22;10304;51.074;13.754;2023-06-04T10:14:34;27.00;1.00
20291;DHT22;10304;51.074;13.754;2023-06-04T10:17:03;27.10;1.00
20291;DHT22;10304;51.074;13.754;2023-06-04T10:19:31;27.10;1.00
20291;DHT22;10304;51.074;13.754;2023-06-04T10:21:59;27.20;1.00
20291;DHT22;10304;51.074;13.754;2023-06-04T10:24:26;27.40;1.00
20291;DHT22;10304;51.074;13.754;2023-06-04T10:26:54;27.70;1.00
20291;DHT22;10304;51.074;13.754;2023-06-04T10:29:25;27.90;1.00
20291;DHT22;10304;51.074;13.754;2023-06-04T10:31:55;28.10;1.00
20291;DHT22;10304;51.074;13.754;2023-06-04T10:34:22;28.30;1.00
20291;DHT22;10304;51.074;13.754;2023-06-04T10:36:49;28.70;1.00
20291;DHT22;10304;51.074;13.754;2023-06-04T10:39:29;28.90;1.00
20291;DHT22;10304;51.074;13.754;2023-06-04T10:42:02;29.10;1.00
20291;DHT22;10304;51.074;13.754;2023-06-04T10:44:30;29.40;1.00
20291;DHT22;10304;51.074;13.754;2023-06-04T10:46:58;29.50;1.00
20291;DHT22;10304;51.074;13.754;2023-06-04T10:49:29;29.70;1.00
20291;DHT22;10304;51.074;13.754;2023-06-04T10:51:57;30.00;1.00
20291;DHT22;10304;51.074;13.754;2023-06-04T10:54:29;30.20;1.00
20291;DHT22;10304;51.074;13.754;2023-06-04T10:56:56;30.50;1.00
20291;DHT22;10304;51.074;13.754;2023-06-04T10:59:23;30.70;1.00
20291;DHT22;10304;51.074;13.754;2023-06-04T11:01:51;30.90;1.00
20291;DHT22;10304;51.074;13.754;2023-06-04T11:04:23;31.00;1.00
20291;DHT22;10304;51.074;13.754;2023-06-04T11:07:06;31.10;1.00
20291;DHT22;10304;51.074;13.754;2023-06-04T11:09:37;31.20;1.00
20291;DHT22;10304;51.074;13.754;2023-06-04T11:12:13;31.30;1.00
20291;DHT22;10304;51.074;13.754;2023-06-04T11:14:40;31.50;1.00
20291;DHT22;10304;51.074;13.754;2023-06-04T11:17:11;31.70;1.00
20291;DHT22;10304;51.074;13.754;2023-06-04T11:19:38;31.90;1.00
20291;DHT22;10304;51.074;13.754;2023-06-04T11:22:05;32.10;1.00
20291;DHT22;10304;51.074;13.754;2023-06-04T11:24:32;32.30;1.00
20291;DHT22;10304;51.074;13.754;2023-06-04T11:26:59;32.50;1.00
20291;DHT22;10304;51.074;13.754;2023-06-04T11:29:49;32.60;1.00
20291;DHT22;10304;51.074;13.754;2023-06-04T11:32:23;32.80;1.00
20291;DHT22;10304;51.074;13.754;2023-06-04T11:34:50;33.00;1.00
20291;DHT22;10304;51.074;13.754;2023-06-04T11:37:17;33.10;1.00
20291;DHT22;10304;51.074;13.754;2023-06-04T11:39:44;33.20;1.00
20291;DHT22;10304;51.074;13.754;2023-06-04T11:42:11;33.30;1.00
20291;DHT22;10304;51.074;13.754;2023-06-04T11:44:39;33.40;1.00
20291;DHT22;10304;51.074;13.754;2023-06-04T11:47:11;33.60;1.00
20291;DHT22;10304;51.074;13.754;2023-06-04T11:49:38;33.80;1.00
20291;DHT22;10304;51.074;13.754;2023-06-04T11:52:05;33.90;1.00
20291;DHT22;10304;51.074;13.754;2023-06-04T11:54:32;34.10;1.00
20291;DHT22;10304;51.074;13.754;2023-06-04T11:57:05;34.20;1.00
20291;DHT22;10304;51.074;13.754;2023-06-04T11:59:33;34.50;1.00
20291;DHT22;10304;51.074;13.754;2023-06-04T12:02:02;34.70;1.00
20291;DHT22;10304;51.074;13.754;2023-06-04T12:04:30;34.50;1.00
20291;DHT22;10304;51.074;13.754;2023-06-04T12:07:00;34.60;1.00
20291;DHT22;10304;51.074;13.754;2023-06-04T12:09:31;34.70;1.00
20291;DHT22;10304;51.074;13.754;2023-06-04T12:12:02;34.90;1.00
20291;DHT22;10304;51.074;13.754;2023-06-04T12:14:30;34.90;1.00
20291;DHT22;10304;51.074;13.754;2023-06-04T12:16:58;35.00;1.00
20291;DHT22;10304;51.074;13.754;2023-06-04T12:19:26;35.10;1.00
20291;DHT22;10304;51.074;13.754;2023-06-04T12:22:04;35.10;1.00
20291;DHT22;10304;51.074;13.754;2023-06-04T12:24:33;35.10;1.00
20291;DHT22;10304;51.074;13.754;2023-06-04T12:27:06;35.20;1.00
20291;DHT22;10304;51.074;13.754;2023-06-04T12:29:33;35.30;1.00
20291;DHT22;10304;51.074;13.754;2023-06-04T12:32:10;35.40;1.00
20291;DHT22;10304;51.074;13.754;2023-06-04T12:34:41;35.50;1.00
20291;DHT22;10304;51.074;13.754;2023-06-04T12:37:09;35.40;1.00
20291;DHT22;10304;51.074;13.754;2023-06-04T12:39:36;35.30;1.00
20291;DHT22;10304;51.074;13.754;2023-06-04T12:42:05;35.10;1.00
20291;DHT22;10304;51.074;13.754;2023-06-04T12:44:40;35.20;1.00
20291;DHT22;10304;51.074;13.754;2023-06-04T12:47:08;35.20;1.00
20291;DHT22;10304;51.074;13.754;2023-06-04T12:49:35;35.10;1.00
20291;DHT22;10304;51.074;13.754;2023-06-04T12:52:02;35.10;1.00
20291;DHT22;10304;51.074;13.754;2023-06-04T12:54:29;35.10;1.00
20291;DHT22;10304;51.074;13.754;2023-06-04T12:56:58;35.20;1.00
20291;DHT22;10304;51.074;13.754;2023-06-04T12:59:26;35.30;1.00
20291;DHT22;10304;51.074;13.754;2023-06-04T13:01:54;35.40;1.00
20291;DHT22;10304;51.074;13.754;2023-06-04T13:04:22;35.50;1.00
20291;DHT22;10304;51.074;13.754;2023-06-04T13:06:51;35.60;1.00
20291;DHT22;10304;51.074;13.754;2023-06-04T13:09:26;35.80;1.00
20291;DHT22;10304;51.074;13.754;2023-06-04T13:11:54;35.90;1.00
20291;DHT22;10304;51.074;13.754;2023-06-04T13:14:22;36.00;99.90
20291;DHT22;10304;51.074;13.754;2023-06-04T13:16:49;36.10;99.90
20291;DHT22;10304;51.074;13.754;2023-06-04T13:19:18;36.20;99.90
20291;DHT22;10304;51.074;13.754;2023-06-04T13:21:47;36.40;99.90
20291;DHT22;10304;51.074;13.754;2023-06-04T13:24:14;36.70;99.90
20291;DHT22;10304;51.074;13.754;2023-06-04T13:26:41;36.80;99.90
20291;DHT22;10304;51.074;13.754;2023-06-04T13:29:09;36.90;99.90
20291;DHT22;10304;51.074;13.754;2023-06-04T13:31:36;37.10;99.90
20291;DHT22;10304;51.074;13.754;2023-06-04T13:34:02;37.30;99.90
20291;DHT22;10304;51.074;13.754;2023-06-04T13:36:48;37.40;99.90
20291;DHT22;10304;51.074;13.754;2023-06-04T13:39:14;37.60;99.90
20291;DHT22;10304;51.074;13.754;2023-06-04T13:41:41;37.70;99.90
20291;DHT22;10304;51.074;13.754;2023-06-04T13:44:08;37.80;99.90
20291;DHT22;10304;51.074;13.754;2023-06-04T13:46:35;38.00;99.90
20291;DHT22;10304;51.074;13.754;2023-06-04T13:49:01;38.00;99.90
20291;DHT22;10304;51.074;13.754;2023-06-04T13:51:29;38.00;99.90
20291;DHT22;10304;51.074;13.754;2023-06-04T13:53:56;38.10;99.90
20291;DHT22;10304;51.074;13.754;2023-06-04T13:56:23;38.10;99.90
20291;DHT22;10304;51.074;13.754;2023-06-04T13:58:50;38.10;99.90
20291;DHT22;10304;51.074;13.754;2023-06-04T14:01:17;38.10;99.90
20291;DHT22;10304;51.074;13.754;2023-06-04T14:03:44;38.10;99.90
20291;DHT22;10304;51.074;13.754;2023-06-04T14:06:11;38.20;99.90
20291;DHT22;10304;51.074;13.754;2023-06-04T14:08:39;38.10;99.90
20291;DHT22;10304;51.074;13.754;2023-06-04T14:11:06;38.20;99.90
20291;DHT22;10304;51.074;13.754;2023-06-04T14:13:33;38.20;99.90
20291;DHT22;10304;51.074;13.754;2023-06-04T14:16:00;38.10;99.90
20291;DHT22;10304;51.074;13.754;2023-06-04T14:18:26;38.10;99.90
20291;DHT22;10304;51.074;13.754;2023-06-04T14:20:53;38.10;99.90
20291;DHT22;10304;51.074;13.754;2023-06-04T14:23:20;38.00;99.90
20291;DHT22;10304;51.074;13.754;2023-06-04T14:25:47;37.90;99.90
20291;DHT22;10304;51.074;13.754;2023-06-04T14:28:13;37.90;99.90
20291;DHT22;10304;51.074;13.754;2023-06-04T14:30:40;37.90;99.90
20291;DHT22;10304;51.074;13.754;2023-06-04T14:33:07;37.90;99.90
20291;DHT22;10304;51.074;13.754;2023-06-04T14:35:34;37.80;99.90
20291;DHT22;10304;51.074;13.754;2023-06-04T14:38:00;37.80;99.90
20291;DHT22;10304;51.074;13.754;2023-06-04T14:40:27;37.70;99.90
20291;DHT22;10304;51.074;13.754;2023-06-04T14:42:54;37.70;99.90
20291;DHT22;10304;51.074;13.754;2023-06-04T14:45:21;37.70;99.90
20291;DHT22;10304;51.074;13.754;2023-06-04T14:47:47;37.60;99.90
20291;DHT22;10304;51.074;13.754;2023-06-04T14:50:28;37.60;99.90
20291;DHT22;10304;51.074;13.754;2023-06-04T14:52:55;37.50;99.90
20291;DHT22;10304;51.074;13.754;2023-06-04T14:55:22;37.50;99.90
20291;DHT22;10304;51.074;13.754;2023-06-04T14:57:49;37.50;99.90
20291;DHT22;10304;51.074;13.754;2023-06-04T15:00:16;37.40;99.90
20291;DHT22;10304;51.074;13.754;2023-06-04T15:02:43;37.40;99.90
20291;DHT22;10304;51.074;13.754;2023-06-04T15:05:11;37.40;99.90
20291;DHT22;10304;51.074;13.754;2023-06-04T15:07:37;37.40;99.90
20291;DHT22;10304;51.074;13.754;2023-06-04T15:10:05;37.50;99.90
20291;DHT22;10304;51.074;13.754;2023-06-04T15:12:32;37.60;99.90
20291;DHT22;10304;51.074;13.754;2023-06-04T15:14:59;37.60;99.90
20291;DHT22;10304;51.074;13.754;2023-06-04T15:17:26;37.70;99.90
20291;DHT22;10304;51.074;13.754;2023-06-04T15:19:53;37.60;99.90
20291;DHT22;10304;51.074;13.754;2023-06-04T15:22:19;37.60;99.90
20291;DHT22;10304;51.074;13.754;2023-06-04T15:24:46;37.70;99.90
20291;DHT22;10304;51.074;13.754;2023-06-04T15:27:13;37.70;99.90
20291;DHT22;10304;51.074;13.754;2023-06-04T15:29:40;37.70;99.90
20291;DHT22;10304;51.074;13.754;2023-06-04T15:32:06;37.80;99.90
20291;DHT22;10304;51.074;13.754;2023-06-04T15:34:33;37.70;99.90
20291;DHT22;10304;51.074;13.754;2023-06-04T15:37:00;37.70;99.90